sensor_id;sensor_type;location;lat;lon;timestamp;P1;durP1;ratioP1;P2;durP2;ratioP2
17024;SDS011;8629;42.496;25.620;2022-08-03T00:02:16;2.33;;;1.87;;
17024;SDS011;8629;42.496;25.620;2022-08-03T00:04:43;1.87;;;1.77;;
17024;SDS011;8629;42.496;25.620;2022-08-03T00:07:10;1.97;;;1.87;;
17024;SDS011;8629;42.496;25.620;2022-08-03T00:09:38;1.93;;;1.80;;
17024;SDS011;8629;42.496;25.620;2022-08-03T00:12:05;2.20;;;1.80;;
17024;SDS011;8629;42.496;25.620;2022-08-03T00:14:32;7.23;;;2.20;;
17024;SDS011;8629;42.496;25.620;2022-08-03T00:16:59;2.20;;;2.00;;
17024;SDS011;8629;42.496;25.620;2022-08-03T00:19:25;1.60;;;1.50;;
17024;SDS011;8629;42.496;25.620;2022-08-03T00:21:53;5.80;;;2.70;;
17024;SDS011;8629;42.496;25.620;2022-08-03T00:24:20;4.10;;;1.70;;
17024;SDS011;8629;42.496;25.620;2022-08-03T00:26:48;2.10;;;1.60;;
17024;SDS011;8629;42.496;25.620;2022-08-03T00:29:15;1.77;;;1.67;;
17024;SDS011;8629;42.496;25.620;2022-08-03T00:31:41;2.00;;;1.90;;
17024;SDS011;8629;42.496;25.620;2022-08-03T00:34:08;2.33;;;2.13;;
17024;SDS011;8629;42.496;25.620;2022-08-03T00:36:35;2.10;;;2.00;;
17024;SDS011;8629;42.496;25.620;2022-08-03T00:39:02;2.30;;;2.13;;
17024;SDS011;8629;42.496;25.620;2022-08-03T00:41:29;2.07;;;1.93;;
17024;SDS011;8629;42.496;25.620;2022-08-03T00:43:57;3.43;;;2.03;;
17024;SDS011;8629;42.496;25.620;2022-08-03T00:46:24;1.97;;;1.87;;
17024;SDS011;8629;42.496;25.620;2022-08-03T00:48:51;2.00;;;1.90;;
17024;SDS011;8629;42.496;25.620;2022-08-03T00:51:18;2.03;;;1.93;;
17024;SDS011;8629;42.496;25.620;2022-08-03T00:53:45;2.30;;;2.20;;
17024;SDS011;8629;42.496;25.620;2022-08-03T00:56:12;2.10;;;1.90;;
17024;SDS011;8629;42.496;25.620;2022-08-03T00:58:39;3.33;;;1.83;;
17024;SDS011;8629;42.496;25.620;2022-08-03T01:01:08;2.07;;;1.97;;
17024;SDS011;8629;42.496;25.620;2022-08-03T01:03:36;2.00;;;1.90;;
17024;SDS011;8629;42.496;25.620;2022-08-03T01:06:04;2.33;;;2.13;;
17024;SDS011;8629;42.496;25.620;2022-08-03T01:08:36;1.90;;;1.80;;
17024;SDS011;8629;42.496;25.620;2022-08-03T01:11:09;1.90;;;1.80;;
17024;SDS011;8629;42.496;25.620;2022-08-03T01:13:40;1.80;;;1.70;;
17024;SDS011;8629;42.496;25.620;2022-08-03T01:16:14;6.77;;;1.90;;
17024;SDS011;8629;42.496;25.620;2022-08-03T01:18:44;2.23;;;1.97;;
17024;SDS011;8629;42.496;25.620;2022-08-03T01:21:15;2.20;;;2.10;;
17024;SDS011;8629;42.496;25.620;2022-08-03T01:23:48;3.70;;;2.50;;
17024;SDS011;8629;42.496;25.620;2022-08-03T01:26:31;2.57;;;2.37;;
17024;SDS011;8629;42.496;25.620;2022-08-03T01:29:14;4.47;;;1.63;;
17024;SDS011;8629;42.496;25.620;2022-08-03T01:32:01;1.80;;;1.70;;
17024;SDS011;8629;42.496;25.620;2022-08-03T01:34:32;2.03;;;1.93;;
17024;SDS011;8629;42.496;25.620;2022-08-03T01:37:02;2.93;;;2.10;;
17024;SDS011;8629;42.496;25.620;2022-08-03T01:39:31;1.93;;;1.83;;
17024;SDS011;8629;42.496;25.620;2022-08-03T01:41:59;2.23;;;2.07;;
17024;SDS011;8629;42.496;25.620;2022-08-03T01:44:30;2.00;;;1.90;;
17024;SDS011;8629;42.496;25.620;2022-08-03T01:47:01;2.43;;;2.23;;
17024;SDS011;8629;42.496;25.620;2022-08-03T01:49:29;2.43;;;2.23;;
17024;SDS011;8629;42.496;25.620;2022-08-03T01:51:57;2.80;;;2.30;;
17024;SDS011;8629;42.496;25.620;2022-08-03T01:54:24;9.00;;;2.70;;
17024;SDS011;8629;42.496;25.620;2022-08-03T01:56:52;2.57;;;2.37;;
17024;SDS011;8629;42.496;25.620;2022-08-03T01:59:20;2.93;;;2.63;;
17024;SDS011;8629;42.496;25.620;2022-08-03T02:01:47;4.50;;;2.23;;
17024;SDS011;8629;42.496;25.620;2022-08-03T02:04:17;2.43;;;2.23;;
17024;SDS011;8629;42.496;25.620;2022-08-03T02:06:44;2.17;;;1.93;;
17024;SDS011;8629;42.496;25.620;2022-08-03T02:09:12;2.50;;;2.30;;
17024;SDS011;8629;42.496;25.620;2022-08-03T02:11:40;2.47;;;2.30;;
17024;SDS011;8629;42.496;25.620;2022-08-03T02:14:07;2.50;;;2.20;;
17024;SDS011;8629;42.496;25.620;2022-08-03T02:16:35;2.70;;;2.50;;
17024;SDS011;8629;42.496;25.620;2022-08-03T02:19:03;3.80;;;3.00;;
17024;SDS011;8629;42.496;25.620;2022-08-03T02:21:32;2.17;;;2.00;;
17024;SDS011;8629;42.496;25.620;2022-08-03T02:24:02;2.17;;;2.07;;
17024;SDS011;8629;42.496;25.620;2022-08-03T02:26:29;2.17;;;2.07;;
17024;SDS011;8629;42.496;25.620;2022-08-03T02:29:02;4.50;;;2.63;;
17024;SDS011;8629;42.496;25.620;2022-08-03T02:31:32;1.90;;;1.80;;
17024;SDS011;8629;42.496;25.620;2022-08-03T02:34:00;2.77;;;2.33;;
17024;SDS011;8629;42.496;25.620;2022-08-03T02:36:31;2.50;;;2.30;;
17024;SDS011;8629;42.496;25.620;2022-08-03T02:39:02;2.67;;;2.47;;
17024;SDS011;8629;42.496;25.620;2022-08-03T02:41:30;2.67;;;2.47;;
17024;SDS011;8629;42.496;25.620;2022-08-03T02:44:01;2.93;;;2.63;;
17024;SDS011;8629;42.496;25.620;2022-08-03T02:46:32;2.50;;;2.20;;
17024;SDS011;8629;42.496;25.620;2022-08-03T02:49:02;3.83;;;2.20;;
17024;SDS011;8629;42.496;25.620;2022-08-03T02:51:31;2.60;;;2.40;;
17024;SDS011;8629;42.496;25.620;2022-08-03T02:54:01;2.63;;;2.43;;
17024;SDS011;8629;42.496;25.620;2022-08-03T02:56:28;2.80;;;2.60;;
17024;SDS011;8629;42.496;25.620;2022-08-03T02:58:56;4.20;;;2.30;;
17024;SDS011;8629;42.496;25.620;2022-08-03T03:01:24;4.30;;;2.20;;
17024;SDS011;8629;42.496;25.620;2022-08-03T03:03:53;3.10;;;2.30;;
17024;SDS011;8629;42.496;25.620;2022-08-03T03:06:21;2.07;;;1.93;;
17024;SDS011;8629;42.496;25.620;2022-08-03T03:08:48;2.23;;;2.13;;
17024;SDS011;8629;42.496;25.620;2022-08-03T03:11:17;2.30;;;2.10;;
17024;SDS011;8629;42.496;25.620;2022-08-03T03:13:46;2.13;;;2.03;;
17024;SDS011;8629;42.496;25.620;2022-08-03T03:16:14;5.90;;;2.77;;
17024;SDS011;8629;42.496;25.620;2022-08-03T03:18:42;2.73;;;2.07;;
17024;SDS011;8629;42.496;25.620;2022-08-03T03:21:10;2.73;;;2.00;;
17024;SDS011;8629;42.496;25.620;2022-08-03T03:23:37;3.17;;;2.30;;
17024;SDS011;8629;42.496;25.620;2022-08-03T03:26:05;2.43;;;2.00;;
17024;SDS011;8629;42.496;25.620;2022-08-03T03:28:33;5.63;;;2.57;;
17024;SDS011;8629;42.496;25.620;2022-08-03T03:31:03;2.30;;;2.20;;
17024;SDS011;8629;42.496;25.620;2022-08-03T03:33:32;2.87;;;2.67;;
17024;SDS011;8629;42.496;25.620;2022-08-03T03:35:59;5.67;;;2.20;;
17024;SDS011;8629;42.496;25.620;2022-08-03T03:38:26;2.70;;;2.23;;
17024;SDS011;8629;42.496;25.620;2022-08-03T03:40:52;3.00;;;2.80;;
17024;SDS011;8629;42.496;25.620;2022-08-03T03:43:21;5.33;;;3.17;;
17024;SDS011;8629;42.496;25.620;2022-08-03T03:45:52;2.93;;;2.73;;
17024;SDS011;8629;42.496;25.620;2022-08-03T03:48:20;3.40;;;3.10;;
17024;SDS011;8629;42.496;25.620;2022-08-03T03:50:47;2.60;;;2.40;;
17024;SDS011;8629;42.496;25.620;2022-08-03T03:53:14;2.60;;;2.40;;
17024;SDS011;8629;42.496;25.620;2022-08-03T03:55:41;14.40;;;4.40;;
17024;SDS011;8629;42.496;25.620;2022-08-03T03:58:08;5.43;;;2.53;;
17024;SDS011;8629;42.496;25.620;2022-08-03T04:00:35;6.00;;;2.63;;
17024;SDS011;8629;42.496;25.620;2022-08-03T04:03:04;2.57;;;2.37;;
17024;SDS011;8629;42.496;25.620;2022-08-03T04:05:31;2.40;;;2.20;;
17024;SDS011;8629;42.496;25.620;2022-08-03T04:08:16;2.40;;;2.20;;
17024;SDS011;8629;42.496;25.620;2022-08-03T04:11:02;4.17;;;2.50;;
17024;SDS011;8629;42.496;25.620;2022-08-03T04:13:36;2.30;;;2.10;;
17024;SDS011;8629;42.496;25.620;2022-08-03T04:16:04;5.90;;;3.00;;
17024;SDS011;8629;42.496;25.620;2022-08-03T04:18:33;4.90;;;3.10;;
17024;SDS011;8629;42.496;25.620;2022-08-03T04:21:02;4.37;;;2.60;;
17024;SDS011;8629;42.496;25.620;2022-08-03T04:23:30;3.80;;;2.60;;
17024;SDS011;8629;42.496;25.620;2022-08-03T04:26:00;3.87;;;2.50;;
17024;SDS011;8629;42.496;25.620;2022-08-03T04:28:27;7.83;;;4.20;;
17024;SDS011;8629;42.496;25.620;2022-08-03T04:30:55;8.70;;;4.13;;
17024;SDS011;8629;42.496;25.620;2022-08-03T04:33:23;10.87;;;3.47;;
17024;SDS011;8629;42.496;25.620;2022-08-03T04:35:54;4.87;;;2.67;;
17024;SDS011;8629;42.496;25.620;2022-08-03T04:38:23;5.73;;;3.03;;
17024;SDS011;8629;42.496;25.620;2022-08-03T04:40:51;3.37;;;2.47;;
17024;SDS011;8629;42.496;25.620;2022-08-03T04:43:18;4.00;;;3.13;;
17024;SDS011;8629;42.496;25.620;2022-08-03T04:45:46;4.93;;;2.77;;
17024;SDS011;8629;42.496;25.620;2022-08-03T04:48:16;3.57;;;3.07;;
17024;SDS011;8629;42.496;25.620;2022-08-03T04:50:44;5.00;;;3.33;;
17024;SDS011;8629;42.496;25.620;2022-08-03T04:53:16;4.17;;;3.20;;
17024;SDS011;8629;42.496;25.620;2022-08-03T04:55:43;3.27;;;2.97;;
17024;SDS011;8629;42.496;25.620;2022-08-03T04:58:10;3.83;;;3.53;;
17024;SDS011;8629;42.496;25.620;2022-08-03T05:00:37;3.20;;;3.00;;
17024;SDS011;8629;42.496;25.620;2022-08-03T05:03:03;5.37;;;2.83;;
17024;SDS011;8629;42.496;25.620;2022-08-03T05:05:30;6.93;;;3.13;;
17024;SDS011;8629;42.496;25.620;2022-08-03T05:07:57;2.80;;;2.60;;
17024;SDS011;8629;42.496;25.620;2022-08-03T05:10:25;7.30;;;2.73;;
17024;SDS011;8629;42.496;25.620;2022-08-03T05:12:52;2.80;;;2.60;;
17024;SDS011;8629;42.496;25.620;2022-08-03T05:15:19;2.87;;;2.67;;
17024;SDS011;8629;42.496;25.620;2022-08-03T05:17:46;2.60;;;2.40;;
17024;SDS011;8629;42.496;25.620;2022-08-03T05:20:13;4.57;;;3.33;;
17024;SDS011;8629;42.496;25.620;2022-08-03T05:22:40;2.43;;;2.33;;
17024;SDS011;8629;42.496;25.620;2022-08-03T05:25:06;2.70;;;2.50;;
17024;SDS011;8629;42.496;25.620;2022-08-03T05:27:35;3.20;;;2.87;;
17024;SDS011;8629;42.496;25.620;2022-08-03T05:30:02;2.73;;;2.47;;
17024;SDS011;8629;42.496;25.620;2022-08-03T05:32:30;2.87;;;2.67;;
17024;SDS011;8629;42.496;25.620;2022-08-03T05:34:57;3.17;;;2.97;;
17024;SDS011;8629;42.496;25.620;2022-08-03T05:37:24;4.80;;;2.80;;
17024;SDS011;8629;42.496;25.620;2022-08-03T05:39:50;4.77;;;3.20;;
17024;SDS011;8629;42.496;25.620;2022-08-03T05:42:17;2.73;;;2.53;;
17024;SDS011;8629;42.496;25.620;2022-08-03T05:44:45;3.07;;;2.80;;
17024;SDS011;8629;42.496;25.620;2022-08-03T05:47:12;2.97;;;2.77;;
17024;SDS011;8629;42.496;25.620;2022-08-03T05:49:39;2.87;;;2.67;;
17024;SDS011;8629;42.496;25.620;2022-08-03T05:52:05;10.30;;;3.23;;
17024;SDS011;8629;42.496;25.620;2022-08-03T05:54:32;2.83;;;2.63;;
17024;SDS011;8629;42.496;25.620;2022-08-03T05:56:59;2.90;;;2.53;;
17024;SDS011;8629;42.496;25.620;2022-08-03T05:59:26;2.60;;;2.50;;
17024;SDS011;8629;42.496;25.620;2022-08-03T06:01:54;3.27;;;2.90;;
17024;SDS011;8629;42.496;25.620;2022-08-03T06:04:21;6.77;;;2.63;;
17024;SDS011;8629;42.496;25.620;2022-08-03T06:06:48;3.27;;;2.87;;
17024;SDS011;8629;42.496;25.620;2022-08-03T06:09:15;2.90;;;2.70;;
17024;SDS011;8629;42.496;25.620;2022-08-03T06:11:42;3.93;;;2.80;;
17024;SDS011;8629;42.496;25.620;2022-08-03T06:14:08;3.77;;;2.83;;
17024;SDS011;8629;42.496;25.620;2022-08-03T06:16:35;2.70;;;2.50;;
17024;SDS011;8629;42.496;25.620;2022-08-03T06:19:03;3.10;;;2.90;;
17024;SDS011;8629;42.496;25.620;2022-08-03T06:21:30;3.37;;;3.03;;
17024;SDS011;8629;42.496;25.620;2022-08-03T06:23:57;3.90;;;2.73;;
17024;SDS011;8629;42.496;25.620;2022-08-03T06:26:24;3.77;;;2.50;;
17024;SDS011;8629;42.496;25.620;2022-08-03T06:28:52;4.07;;;2.77;;
17024;SDS011;8629;42.496;25.620;2022-08-03T06:31:19;8.80;;;3.53;;
17024;SDS011;8629;42.496;25.620;2022-08-03T06:33:47;2.70;;;2.50;;
17024;SDS011;8629;42.496;25.620;2022-08-03T06:36:17;3.30;;;2.83;;
17024;SDS011;8629;42.496;25.620;2022-08-03T06:38:44;3.70;;;2.70;;
17024;SDS011;8629;42.496;25.620;2022-08-03T06:41:11;6.00;;;2.97;;
17024;SDS011;8629;42.496;25.620;2022-08-03T06:43:38;3.70;;;3.30;;
17024;SDS011;8629;42.496;25.620;2022-08-03T06:46:04;3.67;;;2.90;;
17024;SDS011;8629;42.496;25.620;2022-08-03T06:48:31;3.43;;;3.10;;
17024;SDS011;8629;42.496;25.620;2022-08-03T06:50:58;9.87;;;2.93;;
17024;SDS011;8629;42.496;25.620;2022-08-03T06:53:26;13.40;;;3.40;;
17024;SDS011;8629;42.496;25.620;2022-08-03T06:55:53;2.90;;;2.70;;
17024;SDS011;8629;42.496;25.620;2022-08-03T06:58:20;3.67;;;3.03;;
17024;SDS011;8629;42.496;25.620;2022-08-03T07:00:46;3.83;;;2.57;;
17024;SDS011;8629;42.496;25.620;2022-08-03T07:03:13;4.10;;;3.03;;
17024;SDS011;8629;42.496;25.620;2022-08-03T07:05:40;3.40;;;3.10;;
17024;SDS011;8629;42.496;25.620;2022-08-03T07:08:07;4.17;;;2.77;;
17024;SDS011;8629;42.496;25.620;2022-08-03T07:10:45;5.37;;;3.73;;
17024;SDS011;8629;42.496;25.620;2022-08-03T07:13:11;4.33;;;3.43;;
17024;SDS011;8629;42.496;25.620;2022-08-03T07:15:38;3.00;;;2.80;;
17024;SDS011;8629;42.496;25.620;2022-08-03T07:18:06;2.80;;;2.60;;
17024;SDS011;8629;42.496;25.620;2022-08-03T07:20:33;3.13;;;2.90;;
17024;SDS011;8629;42.496;25.620;2022-08-03T07:22:59;5.03;;;3.30;;
17024;SDS011;8629;42.496;25.620;2022-08-03T07:25:26;2.70;;;2.50;;
17024;SDS011;8629;42.496;25.620;2022-08-03T07:27:54;3.30;;;2.40;;
17024;SDS011;8629;42.496;25.620;2022-08-03T07:30:21;3.60;;;3.30;;
17024;SDS011;8629;42.496;25.620;2022-08-03T07:32:48;3.03;;;2.83;;
17024;SDS011;8629;42.496;25.620;2022-08-03T07:35:16;4.07;;;2.87;;
17024;SDS011;8629;42.496;25.620;2022-08-03T07:37:43;2.93;;;2.63;;
17024;SDS011;8629;42.496;25.620;2022-08-03T07:40:09;3.53;;;2.83;;
17024;SDS011;8629;42.496;25.620;2022-08-03T07:42:36;3.77;;;2.53;;
17024;SDS011;8629;42.496;25.620;2022-08-03T07:45:05;2.77;;;2.57;;
17024;SDS011;8629;42.496;25.620;2022-08-03T07:47:33;2.87;;;2.67;;
17024;SDS011;8629;42.496;25.620;2022-08-03T07:50:00;3.00;;;2.60;;
17024;SDS011;8629;42.496;25.620;2022-08-03T07:52:27;3.07;;;2.77;;
17024;SDS011;8629;42.496;25.620;2022-08-03T07:55:12;2.90;;;2.70;;
17024;SDS011;8629;42.496;25.620;2022-08-03T07:57:40;5.20;;;2.53;;
17024;SDS011;8629;42.496;25.620;2022-08-03T08:00:15;5.63;;;3.27;;
17024;SDS011;8629;42.496;25.620;2022-08-03T08:02:43;3.80;;;2.90;;
17024;SDS011;8629;42.496;25.620;2022-08-03T08:05:10;2.72;;;2.53;;
17024;SDS011;8629;42.496;25.620;2022-08-03T08:07:37;3.85;;;2.42;;
17024;SDS011;8629;42.496;25.620;2022-08-03T08:10:05;3.03;;;2.40;;
17024;SDS011;8629;42.496;25.620;2022-08-03T08:12:34;2.92;;;2.72;;
17024;SDS011;8629;42.496;25.620;2022-08-03T08:15:01;3.00;;;2.80;;
17024;SDS011;8629;42.496;25.620;2022-08-03T08:17:29;2.60;;;2.40;;
17024;SDS011;8629;42.496;25.620;2022-08-03T08:19:56;3.40;;;2.53;;
17024;SDS011;8629;42.496;25.620;2022-08-03T08:22:22;3.67;;;3.30;;
17024;SDS011;8629;42.496;25.620;2022-08-03T08:24:49;2.50;;;2.30;;
17024;SDS011;8629;42.496;25.620;2022-08-03T08:27:16;4.07;;;2.90;;
17024;SDS011;8629;42.496;25.620;2022-08-03T08:29:43;2.95;;;2.75;;
17024;SDS011;8629;42.496;25.620;2022-08-03T08:32:10;5.72;;;2.90;;
17024;SDS011;8629;42.496;25.620;2022-08-03T08:34:40;2.75;;;2.55;;
17024;SDS011;8629;42.496;25.620;2022-08-03T08:37:07;2.60;;;2.40;;
17024;SDS011;8629;42.496;25.620;2022-08-03T08:39:33;2.83;;;2.63;;
17024;SDS011;8629;42.496;25.620;2022-08-03T08:42:00;2.75;;;2.40;;
17024;SDS011;8629;42.496;25.620;2022-08-03T08:44:27;2.50;;;2.40;;
17024;SDS011;8629;42.496;25.620;2022-08-03T08:46:55;2.45;;;2.33;;
17024;SDS011;8629;42.496;25.620;2022-08-03T08:49:23;3.53;;;3.25;;
17024;SDS011;8629;42.496;25.620;2022-08-03T08:51:54;2.63;;;2.53;;
17024;SDS011;8629;42.496;25.620;2022-08-03T08:54:22;6.13;;;2.95;;
17024;SDS011;8629;42.496;25.620;2022-08-03T08:56:49;3.00;;;2.40;;
17024;SDS011;8629;42.496;25.620;2022-08-03T08:59:17;4.75;;;2.90;;
17024;SDS011;8629;42.496;25.620;2022-08-03T09:01:44;3.00;;;2.80;;
17024;SDS011;8629;42.496;25.620;2022-08-03T09:04:11;2.60;;;2.40;;
17024;SDS011;8629;42.496;25.620;2022-08-03T09:06:38;2.50;;;2.30;;
17024;SDS011;8629;42.496;25.620;2022-08-03T09:09:06;2.55;;;2.35;;
17024;SDS011;8629;42.496;25.620;2022-08-03T09:11:33;2.72;;;2.53;;
17024;SDS011;8629;42.496;25.620;2022-08-03T09:14:00;2.53;;;2.33;;
17024;SDS011;8629;42.496;25.620;2022-08-03T09:16:27;2.80;;;2.60;;
17024;SDS011;8629;42.496;25.620;2022-08-03T09:18:53;4.78;;;2.72;;
17024;SDS011;8629;42.496;25.620;2022-08-03T09:21:21;2.85;;;2.58;;
17024;SDS011;8629;42.496;25.620;2022-08-03T09:23:50;3.30;;;3.00;;
17024;SDS011;8629;42.496;25.620;2022-08-03T09:26:22;3.58;;;2.97;;
17024;SDS011;8629;42.496;25.620;2022-08-03T09:28:54;4.03;;;2.50;;
17024;SDS011;8629;42.496;25.620;2022-08-03T09:31:31;4.93;;;2.67;;
17024;SDS011;8629;42.496;25.620;2022-08-03T09:34:02;2.58;;;2.42;;
17024;SDS011;8629;42.496;25.620;2022-08-03T09:36:33;2.45;;;2.25;;
17024;SDS011;8629;42.496;25.620;2022-08-03T09:39:04;2.67;;;2.47;;
17024;SDS011;8629;42.496;25.620;2022-08-03T09:41:36;2.67;;;2.47;;
17024;SDS011;8629;42.496;25.620;2022-08-03T09:44:04;2.20;;;2.10;;
17024;SDS011;8629;42.496;25.620;2022-08-03T09:46:31;2.42;;;2.22;;
17024;SDS011;8629;42.496;25.620;2022-08-03T09:49:09;3.35;;;2.75;;
17024;SDS011;8629;42.496;25.620;2022-08-03T09:51:37;2.80;;;2.60;;
17024;SDS011;8629;42.496;25.620;2022-08-03T09:54:04;2.80;;;2.60;;
17024;SDS011;8629;42.496;25.620;2022-08-03T09:56:42;2.78;;;2.50;;
17024;SDS011;8629;42.496;25.620;2022-08-03T09:59:11;2.35;;;2.22;;
17024;SDS011;8629;42.496;25.620;2022-08-03T10:01:38;4.43;;;2.25;;
17024;SDS011;8629;42.496;25.620;2022-08-03T10:04:11;2.60;;;2.40;;
17024;SDS011;8629;42.496;25.620;2022-08-03T10:06:42;3.28;;;2.40;;
17024;SDS011;8629;42.496;25.620;2022-08-03T10:09:09;2.25;;;2.15;;
17024;SDS011;8629;42.496;25.620;2022-08-03T10:11:38;3.17;;;2.08;;
17024;SDS011;8629;42.496;25.620;2022-08-03T10:14:07;2.80;;;2.60;;
17024;SDS011;8629;42.496;25.620;2022-08-03T10:16:42;3.63;;;3.20;;
17024;SDS011;8629;42.496;25.620;2022-08-03T10:19:10;2.42;;;2.22;;
17024;SDS011;8629;42.496;25.620;2022-08-03T10:21:39;2.70;;;2.50;;
17024;SDS011;8629;42.496;25.620;2022-08-03T10:24:12;2.95;;;2.58;;
17024;SDS011;8629;42.496;25.620;2022-08-03T10:26:40;2.47;;;2.38;;
17024;SDS011;8629;42.496;25.620;2022-08-03T10:29:11;2.55;;;2.45;;
17024;SDS011;8629;42.496;25.620;2022-08-03T10:31:43;2.45;;;2.20;;
17024;SDS011;8629;42.496;25.620;2022-08-03T10:34:14;2.38;;;2.28;;
17024;SDS011;8629;42.496;25.620;2022-08-03T10:36:42;2.58;;;2.38;;
17024;SDS011;8629;42.496;25.620;2022-08-03T10:39:10;2.55;;;2.35;;
17024;SDS011;8629;42.496;25.620;2022-08-03T10:41:39;2.90;;;2.70;;
17024;SDS011;8629;42.496;25.620;2022-08-03T10:44:09;7.15;;;2.78;;
17024;SDS011;8629;42.496;25.620;2022-08-03T10:46:38;2.40;;;2.20;;
17024;SDS011;8629;42.496;25.620;2022-08-03T10:49:06;2.67;;;2.47;;
17024;SDS011;8629;42.496;25.620;2022-08-03T10:51:33;2.45;;;2.35;;
17024;SDS011;8629;42.496;25.620;2022-08-03T10:54:01;2.80;;;2.60;;
17024;SDS011;8629;42.496;25.620;2022-08-03T10:56:37;2.42;;;2.33;;
17024;SDS011;8629;42.496;25.620;2022-08-03T11:02:23;4.50;;;2.50;;
17024;SDS011;8629;42.496;25.620;2022-08-03T11:05:28;2.40;;;2.20;;
17024;SDS011;8629;42.496;25.620;2022-08-03T11:08:18;2.80;;;2.60;;
17024;SDS011;8629;42.496;25.620;2022-08-03T11:10:55;8.10;;;2.28;;
17024;SDS011;8629;42.496;25.620;2022-08-03T11:13:27;9.18;;;2.92;;
17024;SDS011;8629;42.496;25.620;2022-08-03T11:15:57;4.90;;;2.55;;
17024;SDS011;8629;42.496;25.620;2022-08-03T11:18:28;2.67;;;2.45;;
17024;SDS011;8629;42.496;25.620;2022-08-03T11:20:55;3.55;;;2.50;;
17024;SDS011;8629;42.496;25.620;2022-08-03T11:26:12;4.20;;;2.40;;
17024;SDS011;8629;42.496;25.620;2022-08-03T11:28:40;2.40;;;2.20;;
17024;SDS011;8629;42.496;25.620;2022-08-03T11:34:15;4.93;;;2.00;;
17024;SDS011;8629;42.496;25.620;2022-08-03T11:39:47;2.05;;;1.85;;
17024;SDS011;8629;42.496;25.620;2022-08-03T11:45:09;2.13;;;2.03;;
17024;SDS011;8629;42.496;25.620;2022-08-03T11:47:37;2.22;;;2.03;;
17024;SDS011;8629;42.496;25.620;2022-08-03T11:50:06;4.03;;;2.20;;
17024;SDS011;8629;42.496;25.620;2022-08-03T11:52:36;2.03;;;1.92;;
17024;SDS011;8629;42.496;25.620;2022-08-03T11:55:11;2.53;;;2.33;;
17024;SDS011;8629;42.496;25.620;2022-08-03T11:57:39;2.80;;;2.22;;
17024;SDS011;8629;42.496;25.620;2022-08-03T12:00:18;2.38;;;2.15;;
17024;SDS011;8629;42.496;25.620;2022-08-03T12:02:53;6.25;;;2.30;;
17024;SDS011;8629;42.496;25.620;2022-08-03T12:05:24;2.22;;;2.10;;
17024;SDS011;8629;42.496;25.620;2022-08-03T12:08:01;1.55;;;1.45;;
17024;SDS011;8629;42.496;25.620;2022-08-03T12:10:29;2.03;;;1.88;;
17024;SDS011;8629;42.496;25.620;2022-08-03T12:12:56;1.88;;;1.70;;
17024;SDS011;8629;42.496;25.620;2022-08-03T12:15:24;1.92;;;1.83;;
17024;SDS011;8629;42.496;25.620;2022-08-03T12:17:51;2.00;;;1.90;;
17024;SDS011;8629;42.496;25.620;2022-08-03T12:20:20;2.25;;;1.90;;
17024;SDS011;8629;42.496;25.620;2022-08-03T12:22:48;2.05;;;1.95;;
17024;SDS011;8629;42.496;25.620;2022-08-03T12:25:19;2.55;;;1.58;;
17024;SDS011;8629;42.496;25.620;2022-08-03T12:27:47;2.28;;;2.17;;
17024;SDS011;8629;42.496;25.620;2022-08-03T12:30:14;4.97;;;2.22;;
17024;SDS011;8629;42.496;25.620;2022-08-03T12:32:41;2.78;;;2.40;;
17024;SDS011;8629;42.496;25.620;2022-08-03T12:35:08;2.40;;;2.20;;
17024;SDS011;8629;42.496;25.620;2022-08-03T12:37:39;2.03;;;1.83;;
17024;SDS011;8629;42.496;25.620;2022-08-03T12:40:13;1.90;;;1.80;;
17024;SDS011;8629;42.496;25.620;2022-08-03T12:42:40;2.15;;;2.05;;
17024;SDS011;8629;42.496;25.620;2022-08-03T12:45:20;2.90;;;2.70;;
17024;SDS011;8629;42.496;25.620;2022-08-03T12:47:51;2.03;;;1.92;;
17024;SDS011;8629;42.496;25.620;2022-08-03T12:50:26;2.08;;;1.85;;
17024;SDS011;8629;42.496;25.620;2022-08-03T12:52:55;1.77;;;1.67;;
17024;SDS011;8629;42.496;25.620;2022-08-03T12:55:22;1.90;;;1.80;;
17024;SDS011;8629;42.496;25.620;2022-08-03T12:57:49;2.30;;;1.92;;
17024;SDS011;8629;42.496;25.620;2022-08-03T13:00:17;2.28;;;2.17;;
17024;SDS011;8629;42.496;25.620;2022-08-03T13:02:44;2.10;;;2.00;;
17024;SDS011;8629;42.496;25.620;2022-08-03T13:05:12;1.55;;;1.45;;
17024;SDS011;8629;42.496;25.620;2022-08-03T13:07:40;1.98;;;1.88;;
17024;SDS011;8629;42.496;25.620;2022-08-03T13:10:09;1.70;;;1.60;;
17024;SDS011;8629;42.496;25.620;2022-08-03T13:12:46;3.17;;;2.03;;
17024;SDS011;8629;42.496;25.620;2022-08-03T13:15:14;1.65;;;1.55;;
17024;SDS011;8629;42.496;25.620;2022-08-03T13:17:41;1.92;;;1.83;;
17024;SDS011;8629;42.496;25.620;2022-08-03T13:20:08;3.28;;;1.65;;
17024;SDS011;8629;42.496;25.620;2022-08-03T13:22:35;1.73;;;1.63;;
17024;SDS011;8629;42.496;25.620;2022-08-03T13:25:02;3.40;;;2.35;;
17024;SDS011;8629;42.496;25.620;2022-08-03T13:27:31;1.90;;;1.77;;
17024;SDS011;8629;42.496;25.620;2022-08-03T13:29:58;1.75;;;1.65;;
17024;SDS011;8629;42.496;25.620;2022-08-03T13:32:25;2.95;;;2.05;;
17024;SDS011;8629;42.496;25.620;2022-08-03T13:34:51;2.92;;;1.60;;
17024;SDS011;8629;42.496;25.620;2022-08-03T13:37:18;1.52;;;1.42;;
17024;SDS011;8629;42.496;25.620;2022-08-03T13:39:45;4.00;;;1.42;;
17024;SDS011;8629;42.496;25.620;2022-08-03T13:42:12;3.15;;;1.90;;
17024;SDS011;8629;42.496;25.620;2022-08-03T13:44:40;2.03;;;1.83;;
17024;SDS011;8629;42.496;25.620;2022-08-03T13:47:07;2.10;;;2.00;;
17024;SDS011;8629;42.496;25.620;2022-08-03T13:49:34;2.40;;;2.30;;
17024;SDS011;8629;42.496;25.620;2022-08-03T13:52:00;2.33;;;2.22;;
17024;SDS011;8629;42.496;25.620;2022-08-03T13:54:29;2.33;;;2.13;;
17024;SDS011;8629;42.496;25.620;2022-08-03T13:56:58;1.75;;;1.65;;
17024;SDS011;8629;42.496;25.620;2022-08-03T13:59:24;1.95;;;1.85;;
17024;SDS011;8629;42.496;25.620;2022-08-03T14:01:53;1.83;;;1.73;;
17024;SDS011;8629;42.496;25.620;2022-08-03T14:04:20;1.83;;;1.73;;
17024;SDS011;8629;42.496;25.620;2022-08-03T14:06:47;2.00;;;1.90;;
17024;SDS011;8629;42.496;25.620;2022-08-03T14:09:14;2.10;;;2.00;;
17024;SDS011;8629;42.496;25.620;2022-08-03T14:11:41;5.22;;;1.90;;
17024;SDS011;8629;42.496;25.620;2022-08-03T14:14:08;2.15;;;1.95;;
17024;SDS011;8629;42.496;25.620;2022-08-03T14:16:35;1.85;;;1.75;;
17024;SDS011;8629;42.496;25.620;2022-08-03T14:19:03;1.90;;;1.80;;
17024;SDS011;8629;42.496;25.620;2022-08-03T14:21:31;1.67;;;1.58;;
17024;SDS011;8629;42.496;25.620;2022-08-03T14:23:59;1.77;;;1.67;;
17024;SDS011;8629;42.496;25.620;2022-08-03T14:26:25;3.90;;;2.25;;
17024;SDS011;8629;42.496;25.620;2022-08-03T14:28:52;3.25;;;1.83;;
17024;SDS011;8629;42.496;25.620;2022-08-03T14:31:19;10.05;;;1.90;;
17024;SDS011;8629;42.496;25.620;2022-08-03T14:33:47;1.50;;;1.40;;
17024;SDS011;8629;42.496;25.620;2022-08-03T14:36:15;2.78;;;2.15;;
17024;SDS011;8629;42.496;25.620;2022-08-03T14:38:42;2.13;;;1.92;;
17024;SDS011;8629;42.496;25.620;2022-08-03T14:41:12;1.98;;;1.83;;
17024;SDS011;8629;42.496;25.620;2022-08-03T14:43:39;2.65;;;1.80;;
17024;SDS011;8629;42.496;25.620;2022-08-03T14:46:06;1.45;;;1.35;;
17024;SDS011;8629;42.496;25.620;2022-08-03T14:48:33;1.90;;;1.80;;
17024;SDS011;8629;42.496;25.620;2022-08-03T14:51:01;4.55;;;4.18;;
17024;SDS011;8629;42.496;25.620;2022-08-03T14:53:29;2.63;;;2.42;;
17024;SDS011;8629;42.496;25.620;2022-08-03T14:55:56;2.10;;;1.90;;
17024;SDS011;8629;42.496;25.620;2022-08-03T14:58:23;3.03;;;2.83;;
17024;SDS011;8629;42.496;25.620;2022-08-03T15:00:51;2.47;;;2.28;;
17024;SDS011;8629;42.496;25.620;2022-08-03T15:03:19;3.83;;;2.25;;
17024;SDS011;8629;42.496;25.620;2022-08-03T15:05:48;2.47;;;2.33;;
17024;SDS011;8629;42.496;25.620;2022-08-03T15:08:15;2.25;;;1.98;;
17024;SDS011;8629;42.496;25.620;2022-08-03T15:10:44;2.42;;;2.33;;
17024;SDS011;8629;42.496;25.620;2022-08-03T15:13:10;2.97;;;2.20;;